Time;durP1;ratioP1;P1;durP2;ratioP2;P2;SDS_P1;SDS_P2;PMS_P1;PMS_P2;Temp;Humidity;BMP_temperature;BMP_pressure;BME280_temperature;BME280_humidity;BME280_pressure;Samples;Min_cycle;Max_cycle;Signal;HPM_P1;HPM_P2
2024/01/14 00:04:58;;;;;;;12.00;6.00;;;;;;;1.55;100.00;99219.06;215185;1283;138176;-94
2024/01/14 00:09:59;;;;;;;11.50;5.80;;;;;;;1.56;100.00;99206.45;214923;1282;138927;-92
2024/01/14 00:14:59;;;;;;;11.90;6.00;;;;;;;1.55;100.00;99203.33;215726;1286;96161;-91
2024/01/14 00:20:00;;;;;;;12.60;5.80;;;;;;;1.54;100.00;99198.11;214919;1283;138866;-93
2024/01/14 00:25:00;;;;;;;11.00;5.30;;;;;;;1.53;100.00;99195.75;215255;1283;138642;-95
2024/01/14 00:30:01;;;;;;;13.80;6.00;;;;;;;1.51;100.00;99193.74;215018;1285;139556;-93
2024/01/14 00:35:01;;;;;;;10.10;5.30;;;;;;;1.49;100.00;99183.41;216296;1282;138256;-94
2024/01/14 00:40:06;;;;;;;11.20;5.40;;;;;;;1.47;100.00;99180.41;215477;1285;139723;-94
2024/01/14 00:45:07;;;;;;;12.10;5.70;;;;;;;1.44;100.00;99173.20;217770;1286;107860;-94
2024/01/14 00:50:08;;;;;;;11.00;5.30;;;;;;;1.41;100.00;99170.58;216409;1283;139768;-94
2024/01/14 00:55:09;;;;;;;10.70;5.50;;;;;;;1.38;100.00;99165.30;216464;1282;138553;-93
2024/01/14 01:00:10;;;;;;;13.40;5.90;;;;;;;1.36;100.00;99158.56;216475;1285;139236;-94
2024/01/14 01:05:11;;;;;;;11.20;5.60;;;;;;;1.36;100.00;99167.01;216421;1282;138341;-96
2024/01/14 01:10:12;;;;;;;13.70;6.00;;;;;;;1.36;100.00;99164.16;215601;1283;138920;-92
2024/01/14 01:15:12;;;;;;;11.10;5.40;;;;;;;1.37;100.00;99155.96;216006;1282;95349;-93
2024/01/14 01:20:13;;;;;;;10.30;4.60;;;;;;;1.38;100.00;99152.91;215827;1282;139568;-96
2024/01/14 01:25:13;;;;;;;10.20;4.50;;;;;;;1.38;100.00;99151.58;216238;1286;138075;-93
2024/01/14 01:30:14;;;;;;;8.90;4.10;;;;;;;1.33;100.00;99137.52;216810;1282;139324;-95
2024/01/14 02:35:05;;;;;;;10.30;4.10;;;;;;;1.12;100.00;99075.56;216421;1290;138379;-94
2024/01/14 02:40:06;;;;;;;9.70;4.60;;;;;;;1.15;100.00;99067.89;215755;1286;138985;-91
2024/01/14 02:45:10;;;;;;;7.90;3.20;;;;;;;1.19;100.00;99064.90;215984;1286;95311;-91
2024/01/14 02:50:10;;;;;;;10.80;4.00;;;;;;;1.20;100.00;99058.05;215525;1289;138763;-89
2024/01/14 02:55:11;;;;;;;11.30;4.10;;;;;;;1.25;100.00;99059.80;216166;1286;137967;-89
2024/01/14 03:00:12;;;;;;;7.00;3.40;;;;;;;1.28;100.00;99056.70;215524;1287;138687;-91
2024/01/14 03:05:12;;;;;;;7.50;2.80;;;;;;;1.28;100.00;99061.81;216068;1286;137971;-88
2024/01/14 03:10:13;;;;;;;10.80;3.40;;;;;;;1.31;100.00;99062.13;215614;1286;138930;-90
2024/01/14 03:15:14;;;;;;;10.30;3.60;;;;;;;1.31;100.00;99059.79;217780;1284;95422;-89
2024/01/14 03:20:14;;;;;;;8.60;3.40;;;;;;;1.32;100.00;99062.14;215955;1284;138984;-89
2024/01/14 03:25:14;;;;;;;9.50;3.70;;;;;;;1.32;100.00;99056.96;216021;1286;138669;-90
2024/01/14 03:30:15;;;;;;;9.50;2.80;;;;;;;1.32;100.00;99054.83;215303;1287;138349;-91
2024/01/14 03:35:15;;;;;;;14.60;3.10;;;;;;;1.32;100.00;99048.98;215871;1286;138106;-91
2024/01/14 03:40:25;;;;;;;8.00;2.90;;;;;;;1.33;100.00;99047.98;215329;1289;140433;-90
2024/01/14 03:45:26;;;;;;;11.70;3.00;;;;;;;1.30;100.00;99039.73;216227;1287;104844;-88
2024/01/14 03:50:27;;;;;;;9.70;2.90;;;;;;;1.32;100.00;99043.25;215491;1289;138986;-88
2024/01/14 03:55:27;;;;;;;8.80;2.80;;;;;;;1.33;100.00;99034.53;216073;1288;137216;-88
2024/01/14 04:00:27;;;;;;;7.00;2.40;;;;;;;1.31;100.00;99025.73;215611;1285;139698;-91
2024/01/14 04:05:28;;;;;;;9.00;3.00;;;;;;;1.29;100.00;99017.55;216523;1288;138195;-93
2024/01/14 04:10:28;;;;;;;10.00;2.50;;;;;;;1.28;100.00;99022.26;215666;1285;139276;-89
2024/01/14 04:15:29;;;;;;;8.90;2.20;;;;;;;1.26;100.00;99018.88;216604;1285;96516;-90
2024/01/14 04:20:29;;;;;;;11.30;2.70;;;;;;;1.25;100.00;99021.17;215734;1285;139137;-89
2024/01/14 04:25:29;;;;;;;7.60;2.60;;;;;;;1.27;100.00;99028.11;216334;1286;140442;-92
2024/01/14 04:30:30;;;;;;;9.30;2.60;;;;;;;1.28;100.00;99025.60;216057;1285;138468;-90
2024/01/14 04:35:30;;;;;;;8.10;2.60;;;;;;;1.28;100.00;99032.86;216215;1285;138130;-90
2024/01/14 04:40:31;;;;;;;9.40;2.50;;;;;;;1.29;100.00;99031.87;215619;1285;139101;-89
2024/01/14 04:45:32;;;;;;;10.60;2.90;;;;;;;1.29;100.00;99031.02;216431;1285;96526;-89
2024/01/14 04:50:32;;;;;;;14.50;3.20;;;;;;;1.30;100.00;99030.66;215636;1284;138859;-88
2024/01/14 04:55:33;;;;;;;7.90;2.70;;;;;;;1.30;100.00;99021.45;216481;1286;137994;-90
2024/01/14 05:00:33;;;;;;;7.50;2.50;;;;;;;1.32;100.00;99015.92;215609;1284;139583;-88
2024/01/14 05:05:33;;;;;;;14.00;2.80;;;;;;;1.33;100.00;99018.27;216189;1285;138548;-89
2024/01/14 05:10:34;;;;;;;10.20;2.30;;;;;;;1.34;100.00;99015.73;215825;1288;140166;-90
2024/01/14 05:15:34;;;;;;;15.30;2.40;;;;;;;1.33;100.00;99017.60;216253;1288;96610;-88
2024/01/14 05:20:35;;;;;;;12.10;2.40;;;;;;;1.34;100.00;99020.48;215839;1285;138972;-89
2024/01/14 05:25:35;;;;;;;15.40;2.50;;;;;;;1.35;100.00;99013.59;216374;1285;138045;-90
2024/01/14 05:30:36;;;;;;;10.10;2.90;;;;;;;1.35;100.00;99014.91;215964;1284;139730;-90
2024/01/14 05:35:36;;;;;;;14.60;2.40;;;;;;;1.34;100.00;99010.48;216322;1284;138322;-89
2024/01/14 05:40:36;;;;;;;9.00;2.70;;;;;;;1.34;100.00;99012.17;215770;1285;139543;-89
2024/01/14 05:45:37;;;;;;;11.40;2.00;;;;;;;1.34;100.00;99014.27;216336;1286;97490;-89
2024/01/14 05:50:37;;;;;;;8.20;1.80;;;;;;;1.33;100.00;99011.62;215658;1284;139566;-92
2024/01/14 05:55:37;;;;;;;14.20;2.00;;;;;;;1.34;100.00;99012.58;216172;1285;138079;-90
2024/01/14 06:00:38;;;;;;;11.80;2.40;;;;;;;1.35;100.00;99012.04;215619;1285;139029;-91
2024/01/14 06:05:38;;;;;;;8.10;2.10;;;;;;;1.34;100.00;99017.23;216368;1286;138127;-91
2024/01/14 06:10:39;;;;;;;10.10;2.40;;;;;;;1.35;100.00;99017.31;215846;1286;139493;-90
2024/01/14 06:15:40;;;;;;;8.50;2.60;;;;;;;1.37;100.00;99014.17;216496;1288;96517;-94
2024/01/14 06:20:41;;;;;;;6.00;2.00;;;;;;;1.36;100.00;99014.69;215894;1288;138912;-92
2024/01/14 06:25:41;;;;;;;10.40;2.20;;;;;;;1.35;100.00;99018.17;216272;1286;138496;-88
2024/01/14 06:30:42;;;;;;;6.30;2.30;;;;;;;1.35;100.00;99022.98;215758;1285;139580;-92
2024/01/14 06:35:45;;;;;;;7.50;2.20;;;;;;;1.35;100.00;99025.45;216269;1285;136893;-91
2024/01/14 06:40:45;;;;;;;7.70;2.00;;;;;;;1.35;100.00;99025.45;215803;1285;139201;-92
2024/01/14 06:45:49;;;;;;;6.70;2.40;;;;;;;1.34;100.00;99025.48;216514;1285;96592;-91
2024/01/14 06:50:50;;;;;;;9.20;2.40;;;;;;;1.33;100.00;99030.04;215959;1285;139222;-92
2024/01/14 06:55:50;;;;;;;11.80;2.70;;;;;;;1.34;100.00;99039.43;216366;1283;138150;-90
2024/01/14 07:00:51;;;;;;;9.80;2.60;;;;;;;1.32;100.00;99044.58;215662;1286;138987;-93
2024/01/14 07:05:51;;;;;;;7.60;2.50;;;;;;;1.30;100.00;99051.89;216037;1288;138025;-89
2024/01/14 07:10:52;;;;;;;8.90;2.80;;;;;;;1.30;100.00;99052.88;215652;1285;139154;-90
2024/01/14 07:15:52;;;;;;;9.80;3.00;;;;;;;1.28;100.00;99054.93;216541;1285;96581;-91
2024/01/14 07:20:53;;;;;;;10.20;3.20;;;;;;;1.26;100.00;99058.60;215968;1285;139875;-91
2024/01/14 07:25:53;;;;;;;10.70;2.70;;;;;;;1.25;100.00;99062.52;216239;1285;138245;-92
2024/01/14 07:30:55;;;;;;;8.60;2.60;;;;;;;1.24;100.00;99065.04;215527;1284;343571;-93
2024/01/14 07:35:56;;;;;;;10.30;2.60;;;;;;;1.26;100.00;99066.64;216271;1285;137971;-91
2024/01/14 07:40:59;;;;;;;12.60;2.80;;;;;;;1.25;100.00;99063.52;215764;1285;139048;-92
2024/01/14 07:45:59;;;;;;;6.70;2.30;;;;;;;1.29;100.00;99065.55;216608;1285;96529;-94
2024/01/14 07:51:01;;;;;;;11.20;4.60;;;;;;;1.30;100.00;99066.66;215643;1284;150204;-93
2024/01/14 07:56:02;;;;;;;9.00;2.90;;;;;;;1.31;100.00;99073.05;216481;1287;138123;-91
2024/01/14 08:01:04;;;;;;;7.30;2.50;;;;;;;1.33;100.00;99073.49;215589;1285;139591;-92
2024/01/14 08:06:05;;;;;;;11.70;3.20;;;;;;;1.34;100.00;99077.14;216411;1284;137991;-94
2024/01/14 08:11:06;;;;;;;8.60;3.30;;;;;;;1.35;100.00;99084.14;215843;1285;139339;-91
2024/01/14 08:16:06;;;;;;;6.40;2.30;;;;;;;1.37;100.00;99087.91;216335;1285;138030;-93
2024/01/14 08:21:15;;;;;;;10.80;2.50;;;;;;;1.39;100.00;99093.14;215708;1285;139054;-92
2024/01/14 08:26:18;;;;;;;7.30;2.70;;;;;;;1.41;100.00;99094.05;216198;1284;138628;-93
2024/01/14 08:31:19;;;;;;;8.80;2.10;;;;;;;1.42;100.00;99091.38;215800;1285;139108;-91
2024/01/14 08:36:22;;;;;;;8.60;2.90;;;;;;;1.44;100.00;99097.02;216238;1284;137987;-93
2024/01/14 08:41:24;;;;;;;7.90;2.50;;;;;;;1.45;100.00;99100.67;215959;1285;139145;-92
2024/01/14 08:46:26;;;;;;;9.20;3.10;;;;;;;1.46;100.00;99098.92;216336;1284;138130;-91
2024/01/14 08:51:28;;;;;;;8.90;2.80;;;;;;;1.46;100.00;99105.02;216555;1285;138873;-93
2024/01/14 08:56:31;;;;;;;14.10;3.60;;;;;;;1.47;100.00;99107.90;217278;1289;138538;-92
2024/01/14 09:06:45;;;;;;;10.60;3.00;;;;;;;1.49;100.00;99116.80;215545;1287;138643;-95
2024/01/14 09:11:46;;;;;;;12.90;3.30;;;;;;;1.51;100.00;99117.48;214977;1285;139539;-91
2024/01/14 09:16:48;;;;;;;11.40;3.30;;;;;;;1.54;100.00;99115.14;215317;1289;138365;-94
2024/01/14 09:21:49;;;;;;;18.40;3.90;;;;;;;1.56;100.00;99121.38;214923;1285;139725;-95
2024/01/14 09:26:49;;;;;;;12.50;2.80;;;;;;;1.58;100.00;99126.63;215348;1285;138084;-92
2024/01/14 09:31:50;;;;;;;10.50;2.50;;;;;;;1.61;100.00;99118.79;214586;1286;140597;-92
2024/01/14 09:36:51;;;;;;;16.30;2.50;;;;;;;1.63;100.00;99120.41;215355;1285;138485;-92
2024/01/14 09:42:02;;;;;;;16.40;2.90;;;;;;;1.64;100.00;99113.46;214268;1285;139911;-94
2024/01/14 09:47:03;;;;;;;11.50;2.60;;;;;;;1.65;100.00;99114.17;215029;1289;139075;-91
2024/01/14 09:52:05;;;;;;;14.10;3.10;;;;;;;1.67;100.00;99110.90;214270;1288;139073;-91
2024/01/14 09:57:12;;;;;;;11.90;3.70;;;;;;;1.70;100.00;99108.27;215134;1285;96629;-90
2024/01/14 10:02:12;;;;;;;;;;;;;;;1.69;100.00;99106.77;214114;1285;139729;-92
2024/01/14 10:07:14;;;;;;;11.00;2.90;;;;;;;1.70;100.00;99106.25;214915;1285;125042;-92
2024/01/14 10:12:15;;;;;;;12.00;3.10;;;;;;;1.70;100.00;99105.47;214922;1285;139834;-91
2024/01/14 10:17:16;;;;;;;14.30;3.00;;;;;;;1.71;100.00;99097.90;215504;1285;138283;-90
2024/01/14 10:22:16;;;;;;;14.30;3.00;;;;;;;1.73;100.00;99094.83;214972;1284;139569;-92
2024/01/14 10:27:17;;;;;;;10.10;3.10;;;;;;;1.73;100.00;99090.29;214985;1288;116987;-91
2024/01/14 10:32:19;;;;;;;12.70;3.40;;;;;;;1.74;100.00;99086.29;214081;1284;139414;-90
2024/01/14 10:37:22;;;;;;;10.60;3.30;;;;;;;1.77;100.00;99077.66;214647;1288;138427;-92
2024/01/14 10:42:23;;;;;;;9.70;3.40;;;;;;;1.79;100.00;99075.18;214265;1283;139049;-91
2024/01/14 10:47:27;;;;;;;11.00;3.10;;;;;;;1.81;100.00;99069.95;214931;1285;139084;-90
2024/01/14 10:52:33;;;;;;;11.20;3.80;;;;;;;1.82;100.00;99076.42;214698;1284;140108;-89
2024/01/14 10:57:37;;;;;;;10.50;3.00;;;;;;;1.83;100.00;99067.05;215059;1284;96616;-89
2024/01/14 11:02:40;;;;;;;16.20;4.70;;;;;;;1.85;100.00;99072.05;214529;1288;139311;-88
2024/01/14 11:07:41;;;;;;;14.00;3.00;;;;;;;1.86;100.00;99069.91;215037;1285;139237;-90
2024/01/14 11:13:06;;;;;;;12.20;2.80;;;;;;;1.89;100.00;99068.66;214867;1286;139322;-89
2024/01/14 11:18:15;;;;;;;15.20;3.20;;;;;;;1.92;100.00;99063.24;215340;1285;139572;-87
2024/01/14 11:23:20;;;;;;;15.50;2.80;;;;;;;1.96;100.00;99055.17;214924;1285;139033;-90
2024/01/14 11:28:20;;;;;;;12.40;3.30;;;;;;;1.98;100.00;99050.35;215242;1287;139724;-89
2024/01/14 11:33:31;;;;;;;9.20;3.10;;;;;;;2.02;100.00;99053.08;214903;1285;139160;-89
2024/01/14 11:38:37;;;;;;;18.10;4.10;;;;;;;2.07;100.00;99045.27;215428;1283;137884;-88
2024/01/14 11:43:38;;;;;;;13.20;3.60;;;;;;;2.11;100.00;99043.27;214887;1287;138799;-89
2024/01/14 11:48:40;;;;;;;14.60;3.50;;;;;;;2.15;100.00;99043.52;214973;1284;138607;-89
2024/01/14 11:53:41;;;;;;;9.40;3.10;;;;;;;2.16;100.00;99032.60;214615;1288;140441;-89
2024/01/14 11:58:42;;;;;;;10.70;2.80;;;;;;;2.19;100.00;99028.71;216339;1288;137936;-89
2024/01/14 12:03:42;;;;;;;9.90;3.60;;;;;;;2.17;100.00;99024.80;214874;1285;139077;-88
2024/01/14 12:08:43;;;;;;;13.10;3.60;;;;;;;2.17;100.00;99021.70;215453;1285;137888;-87
2024/01/14 12:13:44;;;;;;;9.40;3.20;;;;;;;2.18;100.00;99011.34;214860;1286;138766;-89
2024/01/14 12:18:45;;;;;;;10.40;3.10;;;;;;;2.19;100.00;99006.23;215468;1284;138862;-89
2024/01/14 12:23:46;;;;;;;10.50;3.40;;;;;;;2.25;100.00;99010.39;214468;1283;139472;-89
2024/01/14 12:28:48;;;;;;;12.70;4.70;;;;;;;2.31;100.00;99012.62;214872;1288;138163;-89
2024/01/14 12:33:49;;;;;;;13.40;3.30;;;;;;;2.33;100.00;99011.65;213920;1288;139492;-88
2024/01/14 12:38:49;;;;;;;9.60;3.00;;;;;;;2.35;100.00;99011.85;214690;1284;138057;-88
2024/01/14 12:43:50;;;;;;;9.90;3.30;;;;;;;2.35;100.00;99005.95;214465;1284;139511;-90
2024/01/14 12:48:51;;;;;;;11.30;3.00;;;;;;;2.35;100.00;99003.40;215286;1283;138007;-87
2024/01/14 12:53:54;;;;;;;8.10;2.80;;;;;;;2.36;100.00;98997.69;214793;1284;139667;-89
2024/01/14 12:58:55;;;;;;;8.80;2.70;;;;;;;2.39;100.00;98994.23;214940;1285;138497;-88
2024/01/14 13:03:55;;;;;;;9.10;2.70;;;;;;;2.38;100.00;98987.70;214545;1283;139077;-89
2024/01/14 13:08:56;;;;;;;8.70;2.30;;;;;;;2.38;100.00;98984.39;215345;1287;138324;-89
2024/01/14 13:13:59;;;;;;;10.70;2.80;;;;;;;2.37;100.00;98986.98;215021;1284;139549;-88
2024/01/14 13:19:00;;;;;;;8.80;2.50;;;;;;;2.35;100.00;98988.42;214721;1284;138929;-89
2024/01/14 13:24:01;;;;;;;10.30;2.50;;;;;;;2.34;100.00;98978.48;213964;1285;139391;-88
2024/01/14 13:29:01;;;;;;;11.40;2.30;;;;;;;2.34;100.00;98972.27;214578;1284;138896;-89
2024/01/14 13:34:02;;;;;;;8.80;2.60;;;;;;;2.32;100.00;98969.28;214465;1284;138860;-88
2024/01/14 13:39:04;;;;;;;10.40;2.70;;;;;;;2.30;100.00;98966.22;214540;1285;137822;-88
2024/01/14 13:44:08;;;;;;;7.50;2.00;;;;;;;2.28;100.00;98964.73;214290;1285;138840;-87
2024/01/14 13:49:09;;;;;;;5.40;1.90;;;;;;;2.26;100.00;98963.90;214844;1288;138197;-87
2024/01/14 13:54:15;;;;;;;10.50;2.60;;;;;;;2.25;100.00;98963.70;214309;1285;138978;-87
2024/01/14 13:59:15;;;;;;;10.00;2.50;;;;;;;2.22;100.00;98961.16;214274;1285;138705;-87
2024/01/14 14:04:16;;;;;;;11.90;2.60;;;;;;;2.18;100.00;98960.77;214150;1288;139683;-88
2024/01/14 14:09:17;;;;;;;11.40;3.10;;;;;;;2.17;100.00;98951.20;214788;1288;98208;-89
2024/01/14 14:14:18;;;;;;;9.20;3.20;;;;;;;2.14;100.00;98949.38;214050;1284;139236;-88
2024/01/14 14:19:18;;;;;;;10.60;3.90;;;;;;;2.11;100.00;98944.73;215022;1288;138043;-88
2024/01/14 14:24:19;;;;;;;10.40;2.50;;;;;;;2.07;100.00;98940.17;214022;1285;139047;-88
2024/01/14 14:29:19;;;;;;;8.80;3.00;;;;;;;2.05;100.00;98943.91;214685;1288;138952;-87
2024/01/14 14:34:20;;;;;;;10.80;4.20;;;;;;;2.02;100.00;98945.64;214356;1284;139034;-87
2024/01/14 14:39:20;;;;;;;9.20;3.00;;;;;;;1.99;100.00;98944.58;214766;1285;109836;-87
2024/01/14 14:44:21;;;;;;;9.50;3.40;;;;;;;1.97;100.00;98938.77;214199;1286;138572;-87
2024/01/14 14:49:21;;;;;;;11.80;3.10;;;;;;;1.94;100.00;98932.61;214905;1284;138126;-86
2024/01/14 14:54:22;;;;;;;8.40;2.70;;;;;;;1.90;100.00;98926.32;214250;1288;139169;-86
2024/01/14 14:59:22;;;;;;;7.50;2.90;;;;;;;1.87;100.00;98920.98;214783;1284;138035;-87
2024/01/14 15:04:22;;;;;;;7.90;3.30;;;;;;;1.83;100.00;98920.44;214573;1285;138928;-88
2024/01/14 15:09:25;;;;;;;10.00;3.60;;;;;;;1.80;100.00;98916.35;215111;1285;96661;-88
2024/01/14 15:14:26;;;;;;;8.20;3.10;;;;;;;1.78;100.00;98916.05;214434;1289;138992;-89
2024/01/14 15:19:26;;;;;;;10.80;4.10;;;;;;;1.75;100.00;98907.92;214925;1285;137962;-88
2024/01/14 15:24:27;;;;;;;12.40;4.10;;;;;;;1.73;100.00;98910.77;214214;1287;140168;-87
2024/01/14 15:29:28;;;;;;;12.30;3.90;;;;;;;1.72;100.00;98906.34;214945;1284;138341;-88
2024/01/14 15:34:29;;;;;;;9.20;4.00;;;;;;;1.71;100.00;98901.73;214247;1285;139616;-86
2024/01/14 15:39:29;;;;;;;9.80;4.00;;;;;;;1.70;100.00;98892.19;215240;1284;96682;-87
2024/01/14 15:44:30;;;;;;;13.10;3.70;;;;;;;1.68;100.00;98885.02;214147;1285;138679;-85
2024/01/14 15:49:30;;;;;;;10.20;3.30;;;;;;;1.67;100.00;98880.72;214683;1288;138117;-86
2024/01/14 15:54:31;;;;;;;11.50;3.60;;;;;;;1.66;100.00;98878.93;214587;1285;139395;-86
2024/01/14 15:59:31;;;;;;;9.60;3.60;;;;;;;1.66;100.00;98878.01;215085;1285;138448;-87
2024/01/14 16:04:31;;;;;;;10.20;3.30;;;;;;;1.67;100.00;98871.58;214491;1285;139800;-88
2024/01/14 16:09:32;;;;;;;8.50;3.40;;;;;;;1.67;100.00;98874.77;215054;1284;96641;-87
2024/01/14 16:14:34;;;;;;;11.20;3.60;;;;;;;1.67;100.00;98872.91;214220;1285;138678;-87
2024/01/14 16:19:35;;;;;;;11.30;4.30;;;;;;;1.67;100.00;98866.40;214785;1285;138100;-87
2024/01/14 16:24:35;;;;;;;9.60;4.40;;;;;;;1.66;100.00;98867.23;214496;1285;139032;-87
2024/01/14 16:29:35;;;;;;;12.70;3.90;;;;;;;1.64;100.00;98863.23;214871;1285;138387;-88
2024/01/14 16:34:36;;;;;;;16.80;4.00;;;;;;;1.63;100.00;98858.64;213985;1285;140429;-86
2024/01/14 16:39:37;;;;;;;10.90;3.70;;;;;;;1.61;100.00;98851.48;214909;1284;95603;-86
2024/01/14 16:44:37;;;;;;;10.10;3.70;;;;;;;1.61;100.00;98847.84;214439;1285;139423;-86
2024/01/14 16:49:39;;;;;;;8.70;4.40;;;;;;;1.61;100.00;98847.45;214822;1285;138226;-86
2024/01/14 16:54:39;;;;;;;14.70;4.30;;;;;;;1.61;100.00;98843.56;214094;1284;139140;-86
2024/01/14 16:59:40;;;;;;;12.90;5.60;;;;;;;1.62;100.00;98835.31;214838;1285;138336;-87
2024/01/14 17:04:41;;;;;;;16.80;5.80;;;;;;;1.62;100.00;98833.59;214726;1284;139397;-86
2024/01/14 17:09:42;;;;;;;20.80;7.60;;;;;;;1.62;100.00;98829.18;215201;1284;104431;-87
2024/01/14 17:14:43;;;;;;;19.30;5.80;;;;;;;1.61;100.00;98823.61;214734;1288;139433;-87
2024/01/14 17:19:44;;;;;;;15.80;5.80;;;;;;;1.62;100.00;98824.00;214983;1288;138063;-87
2024/01/14 17:24:45;;;;;;;14.70;4.60;;;;;;;1.63;100.00;98827.50;214761;1285;138882;-87
2024/01/14 17:29:46;;;;;;;16.40;5.30;;;;;;;1.64;100.00;98819.39;215547;1285;139040;-87
2024/01/14 17:34:46;;;;;;;12.00;4.30;;;;;;;1.65;100.00;98818.64;214680;1285;139968;-88
2024/01/14 17:39:47;;;;;;;13.00;4.90;;;;;;;1.64;100.00;98810.10;215081;1284;138548;-87
2024/01/14 17:44:48;;;;;;;12.60;4.60;;;;;;;1.65;100.00;98801.15;214813;1288;139730;-87
2024/01/14 17:49:49;;;;;;;13.00;5.00;;;;;;;1.67;100.00;98797.31;214868;1288;138597;-86
2024/01/14 17:54:49;;;;;;;11.60;5.00;;;;;;;1.69;100.00;98787.04;214864;1288;138778;-86
2024/01/14 17:59:50;;;;;;;14.00;4.80;;;;;;;1.69;100.00;98779.21;214788;1285;139040;-89
2024/01/14 18:04:51;;;;;;;15.70;6.10;;;;;;;1.69;100.00;98773.34;214889;1285;139235;-89
2024/01/14 18:09:52;;;;;;;21.90;7.30;;;;;;;1.68;100.00;98768.35;214803;1285;139388;-88
2024/01/14 18:14:52;;;;;;;15.70;5.40;;;;;;;1.66;100.00;98762.27;214924;1288;138076;-88
2024/01/14 18:19:53;;;;;;;16.10;6.00;;;;;;;1.66;100.00;98763.52;214511;1288;139715;-88
2024/01/14 18:24:53;;;;;;;23.30;7.00;;;;;;;1.66;100.00;98756.06;215132;1285;138421;-87
2024/01/14 18:29:54;;;;;;;14.10;6.30;;;;;;;1.65;100.00;98751.55;214535;1285;139953;-88
2024/01/14 18:34:54;;;;;;;10.60;5.50;;;;;;;1.65;100.00;98743.64;215236;1288;138673;-87
2024/01/14 18:39:55;;;;;;;19.40;6.10;;;;;;;1.64;100.00;98737.83;214591;1288;139036;-87
2024/01/14 18:44:55;;;;;;;15.80;6.10;;;;;;;1.65;100.00;98733.19;214729;1288;138310;-88
2024/01/14 18:49:56;;;;;;;14.10;5.60;;;;;;;1.64;100.00;98726.30;214475;1284;139303;-89
2024/01/14 18:54:56;;;;;;;16.80;6.60;;;;;;;1.65;100.00;98717.23;215083;1285;139386;-90
2024/01/14 18:59:58;;;;;;;13.30;6.20;;;;;;;1.65;100.00;98710.27;214325;1288;139526;-86
2024/01/14 19:05:00;;;;;;;21.90;7.70;;;;;;;1.65;100.00;98704.77;215081;1284;138979;-86
2024/01/14 19:10:01;;;;;;;16.90;8.00;;;;;;;1.65;100.00;98704.61;214640;1284;138924;-86
2024/01/14 19:15:05;;;;;;;20.90;8.20;;;;;;;1.64;100.00;98691.80;214905;1287;137945;-86
2024/01/14 19:20:07;;;;;;;18.40;8.60;;;;;;;1.64;100.00;98683.23;214199;1288;140435;-86
2024/01/14 19:25:09;;;;;;;21.10;9.30;;;;;;;1.62;100.00;98682.32;215107;1285;138273;-87
2024/01/14 19:30:09;;;;;;;20.00;10.10;;;;;;;1.60;100.00;98672.38;214106;1285;425182;-87
2024/01/14 19:35:10;;;;;;;19.50;8.70;;;;;;;1.58;100.00;98658.79;214770;1288;138368;-86
2024/01/14 19:40:11;;;;;;;17.00;7.70;;;;;;;1.57;100.00;98647.86;214535;1285;140085;-87
2024/01/14 19:45:12;;;;;;;18.50;8.20;;;;;;;1.56;100.00;98648.52;214874;1288;106830;-85
2024/01/14 19:50:13;;;;;;;16.90;8.00;;;;;;;1.55;100.00;98650.84;214152;1288;139566;-86
2024/01/14 19:55:13;;;;;;;16.50;7.60;;;;;;;1.55;100.00;98641.70;214895;1288;138434;-86
2024/01/14 20:00:15;;;;;;;15.10;7.10;;;;;;;1.54;100.00;98638.20;214111;1284;139448;-87
2024/01/14 20:05:17;;;;;;;18.90;7.80;;;;;;;1.52;100.00;98627.64;214829;1288;138783;-86
2024/01/14 20:10:18;;;;;;;17.00;8.20;;;;;;;1.51;100.00;98615.29;214377;1288;138961;-88
2024/01/14 20:15:18;;;;;;;17.10;7.90;;;;;;;1.49;100.00;98609.36;214960;1285;106584;-86
2024/01/14 20:20:19;;;;;;;23.10;10.00;;;;;;;1.48;100.00;98596.58;214390;1288;140154;-85
2024/01/14 20:25:20;;;;;;;19.70;9.50;;;;;;;1.47;100.00;98594.93;214743;1288;138484;-87
2024/01/14 20:30:22;;;;;;;20.90;8.60;;;;;;;1.47;100.00;98591.37;214116;1288;139209;-85
2024/01/14 20:35:23;;;;;;;16.10;8.20;;;;;;;1.49;100.00;98589.39;215087;1288;138862;-86
2024/01/14 20:40:24;;;;;;;16.70;9.40;;;;;;;1.49;100.00;98580.17;214386;1287;140270;-83
2024/01/14 20:45:27;;;;;;;18.90;10.20;;;;;;;1.49;100.00;98574.14;215159;1285;96577;-87
2024/01/14 20:50:27;;;;;;;18.70;8.90;;;;;;;1.48;100.00;98567.61;214343;1285;139066;-86
2024/01/14 20:55:30;;;;;;;17.20;10.00;;;;;;;1.48;100.00;98560.34;214808;1288;138343;-87
2024/01/14 21:00:30;;;;;;;16.50;9.00;;;;;;;1.49;100.00;98559.57;214417;1285;139938;-86
2024/01/14 21:05:31;;;;;;;18.60;8.90;;;;;;;1.49;100.00;98553.84;215125;1288;138666;-87
2024/01/14 21:10:31;;;;;;;20.80;11.70;;;;;;;1.48;100.00;98551.35;214420;1285;139251;-86
2024/01/14 21:15:32;;;;;;;19.90;10.50;;;;;;;1.47;100.00;98537.46;215063;1285;96575;-88
2024/01/14 21:20:33;;;;;;;21.90;12.00;;;;;;;1.45;100.00;98529.70;214652;1288;139094;-89
2024/01/14 21:25:33;;;;;;;24.40;12.80;;;;;;;1.43;100.00;98518.37;215036;1288;138543;-88
2024/01/14 21:30:34;;;;;;;26.10;13.90;;;;;;;1.42;100.00;98507.73;214450;1285;139659;-85
2024/01/14 21:35:34;;;;;;;25.00;14.00;;;;;;;1.40;100.00;98499.27;215223;1288;138715;-85
2024/01/14 21:40:35;;;;;;;21.80;13.00;;;;;;;1.39;100.00;98481.44;214296;1284;140261;-87
2024/01/14 21:45:35;;;;;;;23.00;12.60;;;;;;;1.36;100.00;98487.52;215129;1285;107522;-85
2024/01/14 21:50:36;;;;;;;22.90;12.60;;;;;;;1.38;100.00;98487.38;214618;1288;139616;-87
2024/01/14 21:55:46;;;;;;;24.70;13.50;;;;;;;1.38;100.00;98478.80;215071;1286;139124;-86
2024/01/14 22:00:46;;;;;;;22.20;12.30;;;;;;;1.38;100.00;98467.58;214524;1286;140132;-86
2024/01/14 22:05:47;;;;;;;23.70;13.20;;;;;;;1.36;100.00;98463.81;214935;1286;138523;-87
2024/01/14 22:10:47;;;;;;;24.90;12.50;;;;;;;1.34;100.00;98463.48;214324;1288;139591;-88
2024/01/14 22:15:48;;;;;;;24.20;13.30;;;;;;;1.29;100.00;98451.78;214954;1287;97990;-86
2024/01/14 22:20:49;;;;;;;27.00;13.80;;;;;;;1.26;100.00;98447.79;214648;1286;139259;-92
2024/01/14 22:25:49;;;;;;;24.00;12.90;;;;;;;1.25;100.00;98445.07;215282;1285;138538;-89
2024/01/14 22:30:50;;;;;;;21.50;12.80;;;;;;;1.25;100.00;98438.80;215589;1286;139458;-87
2024/01/14 22:35:55;;;;;;;26.70;14.10;;;;;;;1.25;100.00;98427.73;215297;1285;140317;-88
2024/01/14 22:40:55;;;;;;;25.80;14.00;;;;;;;1.27;100.00;98421.34;215225;1286;140100;-90
2024/01/14 22:45:56;;;;;;;25.40;13.50;;;;;;;1.27;100.00;98414.06;215640;1286;96718;-87
2024/01/14 22:50:56;;;;;;;25.50;13.30;;;;;;;1.28;100.00;98407.65;218538;1288;139983;-89
2024/01/14 22:55:56;;;;;;;24.40;12.30;;;;;;;1.30;100.00;98394.90;219105;1284;138896;-88
2024/01/14 23:00:57;;;;;;;22.70;12.90;;;;;;;1.31;100.00;98380.29;215354;1288;142997;-87
2024/01/14 23:05:57;;;;;;;24.80;12.00;;;;;;;1.32;100.00;98371.16;215186;1285;139006;-87
2024/01/14 23:10:58;;;;;;;20.70;11.50;;;;;;;1.32;100.00;98367.06;214462;1288;140100;-88
2024/01/14 23:15:59;;;;;;;21.00;11.60;;;;;;;1.32;100.00;98361.64;215080;1284;96773;-87
2024/01/14 23:21:00;;;;;;;19.60;10.90;;;;;;;1.31;100.00;98352.41;214490;1284;139676;-89
2024/01/14 23:26:01;;;;;;;24.20;11.30;;;;;;;1.30;100.00;98343.10;214709;1291;138561;-89
2024/01/14 23:31:02;;;;;;;22.00;12.40;;;;;;;1.31;100.00;98333.84;214585;1288;140468;-87
2024/01/14 23:36:03;;;;;;;22.60;12.40;;;;;;;1.30;100.00;98322.44;214863;1288;138775;-88
2024/01/14 23:41:03;;;;;;;21.40;12.30;;;;;;;1.30;100.00;98317.11;214237;1284;139702;-90
2024/01/14 23:46:04;;;;;;;21.90;12.80;;;;;;;1.30;100.00;98313.63;214820;1285;139097;-87
2024/01/14 23:51:05;;;;;;;24.00;13.00;;;;;;;1.31;100.00;98312.09;214063;1289;140319;-89
2024/01/14 23:56:06;;;;;;;24.10;12.40;;;;;;;1.29;100.00;98293.80;214494;1285;139113;-87
